createdAt,value
2019-04-29T00:01:56.318Z,1.83
2019-04-29T00:07:01.988Z,2.30
2019-04-29T00:12:07.472Z,2.63
2019-04-29T00:17:19.421Z,2.57
2019-04-29T00:22:24.835Z,3.55
2019-04-29T00:27:30.092Z,3.05
2019-04-29T00:32:35.334Z,2.60
2019-04-29T00:38:07.932Z,2.50
2019-04-29T00:43:29.608Z,2.20
2019-04-29T00:48:34.863Z,2.87
2019-04-29T00:53:40.508Z,2.98
2019-04-29T00:58:45.935Z,3.00
2019-04-29T01:03:51.699Z,2.33
2019-04-29T01:08:57.417Z,2.83
2019-04-29T01:14:02.943Z,2.65
2019-04-29T01:19:08.650Z,2.95
2019-04-29T01:24:14.365Z,2.67
2019-04-29T01:29:22.849Z,2.70
2019-04-29T01:34:33.195Z,3.00
2019-04-29T01:39:44.595Z,2.60
2019-04-29T01:44:50.160Z,2.30
2019-04-29T01:49:55.376Z,2.20
2019-04-29T01:55:01.108Z,2.30
2019-04-29T02:00:12.135Z,3.20
2019-04-29T02:05:16.277Z,3.25
2019-04-29T02:10:31.933Z,2.13
2019-04-29T02:15:37.176Z,2.30
2019-04-29T02:20:42.438Z,2.50
2019-04-29T02:25:48.125Z,2.00
2019-04-29T02:30:54.067Z,1.90
2019-04-29T02:35:59.658Z,2.10
2019-04-29T02:41:23.985Z,2.10
2019-04-29T02:46:29.217Z,1.98
2019-04-29T02:51:47.233Z,2.05
2019-04-29T02:57:14.764Z,1.67
2019-04-29T03:02:46.286Z,1.57
2019-04-29T03:07:51.711Z,1.60
2019-04-29T03:12:56.961Z,1.50
2019-04-29T03:18:04.543Z,1.67
2019-04-29T03:23:15.366Z,1.70
2019-04-29T03:28:20.604Z,1.75
2019-04-29T03:33:25.820Z,1.65
2019-04-29T03:38:31.549Z,1.90
2019-04-29T03:43:36.808Z,1.67
2019-04-29T03:48:42.104Z,1.98
2019-04-29T03:53:48.060Z,1.60
2019-04-29T03:58:53.397Z,3.00
2019-04-29T04:04:03.671Z,1.77
2019-04-29T04:09:15.442Z,1.80
2019-04-29T04:14:20.814Z,1.85
2019-04-29T04:19:27.539Z,1.82
2019-04-29T04:24:32.852Z,1.90
2019-04-29T04:29:38.317Z,1.90
2019-04-29T04:34:43.567Z,2.17
2019-04-29T04:39:48.837Z,1.87
2019-04-29T04:44:54.302Z,1.80
2019-04-29T04:49:59.631Z,1.80
2019-04-29T04:55:05.675Z,1.90
2019-04-29T05:00:20.000Z,2.10
2019-04-29T05:05:24.156Z,1.77
2019-04-29T05:10:29.500Z,2.83
2019-04-29T05:15:35.215Z,6.37
2019-04-29T05:20:40.467Z,8.20
2019-04-29T05:25:45.880Z,12.95
2019-04-29T05:30:51.179Z,8.03
2019-04-29T05:36:03.787Z,5.47
2019-04-29T05:41:09.291Z,3.90
2019-04-29T05:46:33.521Z,2.75
2019-04-29T05:51:57.616Z,4.15
2019-04-29T05:57:00.550Z,4.62
2019-04-29T06:02:06.401Z,4.62
2019-04-29T06:07:11.760Z,5.60
2019-04-29T06:12:17.085Z,6.00
2019-04-29T06:17:22.647Z,5.00
2019-04-29T06:22:28.086Z,4.80
2019-04-29T06:27:33.507Z,4.35
2019-04-29T06:32:39.217Z,4.00
2019-04-29T06:37:44.587Z,3.83
2019-04-29T06:42:53.347Z,4.10
2019-04-29T06:47:57.224Z,4.50
2019-04-29T06:53:02.422Z,5.20
2019-04-29T06:58:07.674Z,4.80
2019-04-29T07:03:13.038Z,4.62
2019-04-29T07:08:19.309Z,4.60
2019-04-29T07:13:24.850Z,4.15
2019-04-29T07:18:30.646Z,4.53
2019-04-29T07:23:36.184Z,4.47
2019-04-29T07:28:41.711Z,3.87
2019-04-29T07:33:46.980Z,4.20
2019-04-29T07:38:56.740Z,3.90
2019-04-29T07:44:00.213Z,3.90
2019-04-29T07:49:05.883Z,3.95
2019-04-29T07:54:15.867Z,3.42
2019-04-29T07:59:18.321Z,3.52
2019-04-29T08:04:23.664Z,2.67
2019-04-29T08:09:29.264Z,3.00
2019-04-29T08:14:34.801Z,2.90
2019-04-29T08:19:40.123Z,3.00
2019-04-29T08:24:45.847Z,3.20
2019-04-29T08:29:52.330Z,2.50
2019-04-29T08:35:00.961Z,2.40
2019-04-29T08:40:16.069Z,2.20
2019-04-29T08:45:23.099Z,2.62
2019-04-29T08:50:28.330Z,2.30
2019-04-29T08:55:36.181Z,2.35
2019-04-29T09:00:41.192Z,2.45
2019-04-29T09:06:04.366Z,2.70
2019-04-29T09:10:53.824Z,2.67
2019-04-29T09:15:59.390Z,2.53
2019-04-29T09:21:04.633Z,2.20
2019-04-29T09:26:24.282Z,2.20
2019-04-29T09:31:30.006Z,2.10
2019-04-29T09:36:35.227Z,1.98
2019-04-29T09:42:08.026Z,1.70
2019-04-29T09:47:13.295Z,1.52
2019-04-29T09:52:18.684Z,1.45
2019-04-29T09:57:24.356Z,1.67
2019-04-29T10:02:41.816Z,1.42
2019-04-29T10:07:47.070Z,1.70
2019-04-29T10:12:54.111Z,1.70
2019-04-29T10:18:09.341Z,1.60
2019-04-29T10:23:15.079Z,2.15
2019-04-29T10:28:20.457Z,2.40
2019-04-29T10:33:26.241Z,2.12
2019-04-29T10:38:31.471Z,1.70
2019-04-29T10:44:07.629Z,1.60
2019-04-29T10:49:22.929Z,1.83
2019-04-29T10:54:30.271Z,2.07
2019-04-29T10:59:40.687Z,2.20
2019-04-29T11:04:46.587Z,2.20
2019-04-29T11:09:59.554Z,2.40
2019-04-29T11:15:09.968Z,2.40
2019-04-29T11:20:15.895Z,2.83
2019-04-29T11:25:51.188Z,3.43
2019-04-29T11:30:53.279Z,3.15
2019-04-29T11:36:05.911Z,3.08
2019-04-29T11:41:19.278Z,3.13
2019-04-29T11:46:20.991Z,2.90
2019-04-29T11:51:34.272Z,2.92
2019-04-29T11:56:39.719Z,2.50
2019-04-29T12:02:02.954Z,3.45
2019-04-29T12:07:08.308Z,3.22
2019-04-29T12:12:15.029Z,2.77
2019-04-29T12:17:33.159Z,2.47
2019-04-29T12:22:48.236Z,2.97
2019-04-29T12:27:45.863Z,2.90
2019-04-29T12:33:10.074Z,2.90
2019-04-29T12:38:49.081Z,2.90
2019-04-29T12:44:01.189Z,2.83
2019-04-29T12:49:08.629Z,3.20
2019-04-29T12:54:14.178Z,2.90
2019-04-29T12:59:19.807Z,3.58
2019-04-29T13:04:45.218Z,3.33
2019-04-29T13:09:51.959Z,3.42
2019-04-29T13:15:28.229Z,4.20
2019-04-29T13:20:34.469Z,4.58
2019-04-29T13:25:41.572Z,4.55
2019-04-29T13:30:50.999Z,4.60
2019-04-29T13:35:54.006Z,4.42
2019-04-29T13:41:12.770Z,4.55
2019-04-29T13:46:30.047Z,5.28
2019-04-29T13:51:37.190Z,4.95
2019-04-29T13:56:55.094Z,5.30
2019-04-29T14:02:01.470Z,5.30
2019-04-29T14:07:03.638Z,5.70
2019-04-29T14:12:46.640Z,6.00
2019-04-29T14:17:26.073Z,5.85
2019-04-29T14:22:25.413Z,6.03
2019-04-29T14:27:30.746Z,6.50
2019-04-29T14:32:42.021Z,6.47
2019-04-29T14:37:54.559Z,7.03
2019-04-29T14:43:28.700Z,7.55
2019-04-29T14:48:42.646Z,7.75
2019-04-29T14:53:55.663Z,7.08
2019-04-29T14:58:50.992Z,7.37
2019-04-29T15:03:58.749Z,6.50
2019-04-29T15:09:08.291Z,6.87
2019-04-29T15:14:40.109Z,6.10
2019-04-29T15:20:07.388Z,7.25
2019-04-29T15:25:12.827Z,6.35
2019-04-29T15:30:18.789Z,6.10
2019-04-29T15:35:25.424Z,6.75
2019-04-29T15:40:31.651Z,6.53
2019-04-29T15:45:37.000Z,6.70
2019-04-29T15:50:42.374Z,7.10
2019-04-29T15:55:47.698Z,7.03
2019-04-29T16:00:53.353Z,6.00
2019-04-29T16:06:20.686Z,6.62
2019-04-29T16:11:33.387Z,7.25
2019-04-29T16:16:37.373Z,7.20
2019-04-29T16:21:42.969Z,7.33
2019-04-29T16:26:53.552Z,7.08
2019-04-29T16:32:02.366Z,7.85
2019-04-29T16:37:02.793Z,8.00
2019-04-29T16:42:26.022Z,7.57
2019-04-29T16:47:31.430Z,8.35
2019-04-29T16:52:41.197Z,8.80
2019-04-29T16:57:43.874Z,9.18
2019-04-29T17:02:50.244Z,8.40
2019-04-29T17:07:55.670Z,8.27
2019-04-29T17:13:01.032Z,8.05
2019-04-29T17:18:07.334Z,8.25
2019-04-29T17:23:12.660Z,7.95
2019-04-29T17:28:25.433Z,8.50
2019-04-29T17:33:52.788Z,8.30
2019-04-29T17:38:59.020Z,8.70
2019-04-29T17:44:35.822Z,7.50
2019-04-29T17:50:06.187Z,7.20
2019-04-29T17:55:37.628Z,6.30
2019-04-29T18:00:59.422Z,5.85
2019-04-29T18:06:17.216Z,5.50
2019-04-29T18:11:22.966Z,5.43
2019-04-29T18:16:39.451Z,5.97
2019-04-29T18:22:01.067Z,4.90
2019-04-29T18:27:10.408Z,5.28
2019-04-29T18:32:19.078Z,5.00
2019-04-29T18:37:25.452Z,4.85
2019-04-29T18:42:31.058Z,5.23
2019-04-29T18:47:38.747Z,5.10
2019-04-29T18:52:45.778Z,5.72
2019-04-29T18:57:56.456Z,5.10
2019-04-29T19:03:01.194Z,5.30
2019-04-29T19:08:14.030Z,5.20
2019-04-29T19:13:16.693Z,5.78
2019-04-29T19:18:21.644Z,5.70
2019-04-29T19:23:29.612Z,6.53
2019-04-29T19:28:34.671Z,6.60
2019-04-29T19:33:41.611Z,7.37
2019-04-29T19:38:47.473Z,7.63
2019-04-29T19:43:54.940Z,8.97
2019-04-29T19:49:08.073Z,9.28
2019-04-29T19:54:07.637Z,9.17
2019-04-29T19:59:14.671Z,10.55
2019-04-29T20:04:28.202Z,10.98
2019-04-29T20:09:36.224Z,10.70
2019-04-29T20:14:41.315Z,11.63
2019-04-29T20:19:56.674Z,13.50
2019-04-29T20:24:59.319Z,13.48
2019-04-29T20:30:15.931Z,13.90
2019-04-29T20:35:15.756Z,14.50
2019-04-29T20:40:20.894Z,16.20
2019-04-29T20:45:28.898Z,17.02
2019-04-29T20:50:35.214Z,17.40
2019-04-29T20:55:40.888Z,18.80
2019-04-29T21:00:46.855Z,18.60
2019-04-29T21:05:54.998Z,18.55
2019-04-29T21:11:03.059Z,20.10
2019-04-29T21:16:29.652Z,20.35
2019-04-29T21:21:36.899Z,20.57
2019-04-29T21:26:44.659Z,20.85
2019-04-29T21:31:55.409Z,21.20
2019-04-29T21:37:19.638Z,19.42
2019-04-29T21:42:38.523Z,20.23
2019-04-29T21:47:47.804Z,19.85
2019-04-29T21:52:55.359Z,20.03
2019-04-29T21:58:00.132Z,19.73
2019-04-29T22:03:05.748Z,18.85
2019-04-29T22:08:11.339Z,19.82
2019-04-29T22:13:16.880Z,20.97
2019-04-29T22:18:22.311Z,20.30
2019-04-29T22:23:27.766Z,20.32
2019-04-29T22:28:35.127Z,20.90
2019-04-29T22:33:42.383Z,20.80
2019-04-29T22:38:51.983Z,21.65
2019-04-29T22:43:59.347Z,21.20
2019-04-29T22:49:05.871Z,21.50
2019-04-29T22:54:11.572Z,21.55
2019-04-29T22:59:19.099Z,22.70
2019-04-29T23:04:24.923Z,23.50
2019-04-29T23:09:30.304Z,22.70
2019-04-29T23:14:36.113Z,23.35
2019-04-29T23:19:46.602Z,23.55
2019-04-29T23:25:08.734Z,24.17
2019-04-29T23:30:18.030Z,23.98
2019-04-29T23:35:25.016Z,23.87
2019-04-29T23:40:30.166Z,25.50
2019-04-29T23:45:35.899Z,25.15
2019-04-29T23:50:41.126Z,26.12
2019-04-29T23:55:46.687Z,25.30
